Burlington, Wyoming
Current Conditions -  °F | °C
As of 4:53 PM on Sunday 23 Nov 2014 (Local Time) from KGEY Reporting Station
Clear Clear  
Wind Chill: 26°   Ceiling: Unl
Heat Index: 35°   Visibility: 10mi
Dew Point: 18°   Wind: 13mph
Humidity: 50%   Direction: 320°NW
Pressure: 29.89"   Gusts: NA
Location:  44.45°N, 108.43°W
Report Text: KGEY 232353Z AUTO 32011KT 10SM CLR 02/M08 A2989 RMK AO2 SLP159 T00171078 10044 20017 55001
Loading
Personal Weather Stations






























Interactive Weather Map New forecast layout! Learn more

10-Day Weather Forecast

Advertisements
Track Severe Weather on mobile